Horsley Equestrian, New South Wales

11:31 AM AEDT on December 18, 2014 (GMT +1100)
South Blacktown | Change Station
CLOSE
Current Station
Personal Weather Station
Location: Blacktown, NEW SOUTH WALES
Elevation: 256 ft
Nearby Weather Stations

Elev 256 ft 33.78 °S, 150.89 °E | Updated 5 seconds ago

Overcast
Overcast
77.2 °F
Feels Like 79 °F
N
0.0
Wind Variable Wind from ESE
Gusts 0.0 mph

Today
High -- | Low -- °F
--% Chance of Precip.
Yesterday
High -- | Low -- °F
Precip. -- in
5:40 AM 8:05 PM
Waning Crescent, 18% visible
Pressure 29.80 in
Visibility 6.2 miles
Clouds Overcast 1800 ft
Heat Index 79 °F
Dew Point 62 °F
Humidity 60%
Rainfall 0.00 in
Snow Depth Not available.
UV 3.0 out of 12
Pollen Not available.
Air Quality Not available.
Flu Activity Not available.
METAR YSRI 180000Z AUTO 26003KT 9999 // OVC018 21/16 Q1009

More Conditions Fewer Conditions

Pressure 29.80 in
Visibility 6.2 miles
Clouds Overcast 1800 ft
Heat Index 79 °F
Dew Point 62 °F
Humidity 60%
Rainfall 0.00 in
Snow Depth Not available.
UV 3.0 out of 12
Pollen Not available.
Air Quality Not available.
Flu Activity Not available.
METAR YSRI 180000Z AUTO 26003KT 9999 // OVC018 21/16 Q1009

More Conditions Fewer Conditions

10-Day Weather Forecast

Almanac

Astronomy

Dec. 18, 2014 Rise Set
Actual Time
Civil Twilight
Nautical Twilight
Astronomical Twilight
Moon
Length of Visible Light
Length of Day
Tomorrow will be .
, % of the Moon is Illuminated

Today's Extremes

Country Highs Country Lows

Community

WunderPhotos

Upload Photos

1,778,837 photos uploaded!

WunderBlogs® & News

Nearby

Air Quality

  Air Quality AQ Index Pollutant
Not available.

Snow Depth

Station Depth Elevation

Earthquake Activity

City Distance Mag. Time & Date
Minimum magnitude displayed is 2.5.

Coastal Water Temperatures

Place Temperature

Nearby Weather Stations